Time,TemperatureF,DewpointF,PressureIn,WindDirection,WindDirectionDegrees,WindSpeedMPH,WindSpeedGustMPH,Humidity,HourlyPrecipIn,Conditions,Clouds,dailyrainin,SoftwareType,DateUTC
2013-02-07 00:02:00,35.0,24.0,30.09,SE,128,0.0,1.0,64,0.00,,,0.00,,2013-02-07 05:02:00,
2013-02-07 00:12:00,35.0,24.0,30.09,SE,128,0.0,1.0,64,0.00,,,0.00,,2013-02-07 05:12:00,
2013-02-07 00:21:00,38.0,25.0,30.09,WSW,256,0.0,2.0,59,0.00,,,0.00,,2013-02-07 05:21:00,
2013-02-07 00:32:00,37.0,26.0,30.09,SW,215,0.0,1.0,65,0.00,,,0.00,,2013-02-07 05:32:00,
2013-02-07 00:42:00,37.0,26.0,30.09,SW,215,0.0,1.0,65,0.00,,,0.00,,2013-02-07 05:42:00,
2013-02-07 00:52:00,38.0,25.0,30.09,SW,218,0.0,1.0,59,0.00,,,0.00,,2013-02-07 05:52:00,
2013-02-07 01:02:00,38.0,25.0,30.08,SW,236,0.0,1.0,60,0.00,,,0.00,,2013-02-07 06:02:00,
2013-02-07 01:11:00,38.0,25.0,30.08,SW,236,0.0,1.0,60,0.00,,,0.00,,2013-02-07 06:11:00,
2013-02-07 01:22:00,39.0,25.0,30.09,SW,220,1.0,1.0,57,0.00,,,0.00,,2013-02-07 06:22:00,
2013-02-07 01:32:00,39.0,25.0,30.09,SW,220,1.0,1.0,57,0.00,,,0.00,,2013-02-07 06:32:00,
2013-02-07 01:43:00,39.0,25.0,30.09,SW,220,1.0,1.0,57,0.00,,,0.00,,2013-02-07 06:43:00,
2013-02-07 01:52:00,39.0,23.0,30.09,SSW,209,0.0,1.0,53,0.00,,,0.00,,2013-02-07 06:52:00,
2013-02-07 02:01:00,39.0,25.0,30.09,SW,224,1.0,1.0,56,0.00,,,0.00,,2013-02-07 07:01:00,
2013-02-07 02:11:00,39.0,25.0,30.09,SW,224,1.0,1.0,56,0.00,,,0.00,,2013-02-07 07:11:00,
2013-02-07 02:22:00,39.0,25.0,30.10,SW,215,0.0,2.0,56,0.00,,,0.00,,2013-02-07 07:22:00,
2013-02-07 02:32:00,39.0,25.0,30.10,SW,215,0.0,2.0,56,0.00,,,0.00,,2013-02-07 07:32:00,
2013-02-07 02:42:00,39.0,25.0,30.10,SW,215,0.0,2.0,56,0.00,,,0.00,,2013-02-07 07:42:00,
2013-02-07 02:52:00,39.0,26.0,30.09,SSW,211,1.0,2.0,59,0.00,,,0.00,,2013-02-07 07:52:00,
2013-02-07 03:02:00,38.0,25.0,30.09,SW,218,1.0,2.0,59,0.00,,,0.00,,2013-02-07 08:02:00,
2013-02-07 03:11:00,38.0,25.0,30.09,SW,218,1.0,2.0,59,0.00,,,0.00,,2013-02-07 08:11:00,
2013-02-07 03:22:00,38.0,25.0,30.09,SW,223,0.0,2.0,58,0.00,,,0.00,,2013-02-07 08:22:00,
2013-02-07 03:32:00,38.0,25.0,30.09,SW,225,1.0,2.0,59,0.00,,,0.00,,2013-02-07 08:32:00,
2013-02-07 03:42:00,38.0,25.0,30.09,SW,225,1.0,2.0,59,0.00,,,0.00,,2013-02-07 08:42:00,
2013-02-07 03:52:00,38.0,25.0,30.09,SW,225,1.0,2.0,59,0.00,,,0.00,,2013-02-07 08:52:00,
2013-02-07 04:02:00,37.0,25.0,30.11,South,185,1.0,2.0,62,0.00,,,0.00,,2013-02-07 09:02:00,
2013-02-07 04:11:00,37.0,25.0,30.11,South,185,1.0,2.0,62,0.00,,,0.00,,2013-02-07 09:11:00,
2013-02-07 04:22:00,37.0,25.0,30.11,South,187,1.0,2.0,61,0.00,,,0.00,,2013-02-07 09:22:00,
2013-02-07 04:32:00,37.0,25.0,30.11,South,187,1.0,2.0,61,0.00,,,0.00,,2013-02-07 09:32:00,
2013-02-07 04:42:00,37.0,25.0,30.11,South,187,1.0,2.0,61,0.00,,,0.00,,2013-02-07 09:42:00,
2013-02-07 04:52:00,37.0,26.0,30.11,SW,236,0.0,3.0,63,0.00,,,0.00,,2013-02-07 09:52:00,
2013-02-07 05:02:00,38.0,27.0,30.11,WSW,252,0.0,1.0,64,0.00,,,0.00,,2013-02-07 10:02:00,
2013-02-07 05:11:00,38.0,27.0,30.11,WSW,252,0.0,1.0,64,0.00,,,0.00,,2013-02-07 10:11:00,
2013-02-07 05:22:00,38.0,26.0,30.11,SW,229,0.0,1.0,62,0.00,,,0.00,,2013-02-07 10:22:00,
2013-02-07 05:32:00,38.0,27.0,30.11,SW,225,0.0,1.0,63,0.00,,,0.00,,2013-02-07 10:32:00,
2013-02-07 05:42:00,38.0,27.0,30.11,SW,225,0.0,1.0,63,0.00,,,0.00,,2013-02-07 10:42:00,
2013-02-07 05:51:00,38.0,27.0,30.10,SSE,159,0.0,1.0,64,0.00,,,0.00,,2013-02-07 10:51:00,
2013-02-07 06:02:00,38.0,27.0,30.09,SSE,159,0.0,1.0,64,0.00,,,0.00,,2013-02-07 11:02:00,
2013-02-07 06:11:00,38.0,27.0,30.09,SSE,159,0.0,1.0,64,0.00,,,0.00,,2013-02-07 11:11:00,
2013-02-07 06:23:00,38.0,27.0,30.09,SSE,159,0.0,1.0,64,0.00,,,0.00,,2013-02-07 11:23:00,
2013-02-07 06:32:00,38.0,27.0,30.09,SSE,152,0.0,1.0,65,0.00,,,0.00,,2013-02-07 11:32:00,
2013-02-07 06:44:00,38.0,27.0,30.09,SSE,152,0.0,1.0,65,0.00,,,0.00,,2013-02-07 11:44:00,
2013-02-07 06:53:00,38.0,28.0,30.09,South,178,0.0,1.0,68,0.00,,,0.00,,2013-02-07 11:53:00,
2013-02-07 07:02:00,38.0,29.0,30.10,SW,235,0.0,1.0,70,0.00,,,0.00,,2013-02-07 12:02:00,
2013-02-07 07:12:00,38.0,29.0,30.10,SW,235,0.0,1.0,70,0.00,,,0.00,,2013-02-07 12:12:00,
2013-02-07 07:22:00,38.0,28.0,30.10,WSW,254,0.0,1.0,68,0.00,,,0.00,,2013-02-07 12:22:00,
2013-02-07 07:33:00,38.0,29.0,30.09,SE,126,0.0,1.0,69,0.00,,,0.00,,2013-02-07 12:33:00,
2013-02-07 07:42:00,38.0,29.0,30.09,SE,126,0.0,1.0,69,0.00,,,0.00,,2013-02-07 12:42:00,
2013-02-07 07:53:00,39.0,30.0,30.09,SE,140,0.0,1.0,70,0.00,,,0.00,,2013-02-07 12:53:00,
2013-02-07 08:03:00,39.0,31.0,30.09,South,186,0.0,1.0,73,0.00,,,0.00,,2013-02-07 13:03:00,
2013-02-07 08:12:00,39.0,31.0,30.09,South,186,0.0,1.0,73,0.00,,,0.00,,2013-02-07 13:12:00,
2013-02-07 08:22:00,39.0,31.0,30.09,SE,143,0.0,1.0,72,0.00,,,0.00,,2013-02-07 13:22:00,
2013-02-07 08:32:00,40.0,32.0,30.10,SW,214,0.0,1.0,72,0.00,,,0.00,,2013-02-07 13:32:00,
2013-02-07 08:42:00,40.0,32.0,30.10,SW,214,0.0,1.0,72,0.00,,,0.00,,2013-02-07 13:42:00,
2013-02-07 08:52:00,40.0,32.0,30.09,SE,128,0.0,1.0,72,0.00,,,0.00,,2013-02-07 13:52:00,
2013-02-07 09:02:00,40.0,32.0,30.10,SE,129,0.0,1.0,72,0.00,,,0.00,,2013-02-07 14:02:00,
2013-02-07 09:11:00,40.0,32.0,30.10,SE,129,0.0,1.0,72,0.00,,,0.00,,2013-02-07 14:11:00,
2013-02-07 09:22:00,40.0,32.0,30.10,SE,129,0.0,1.0,72,0.00,,,0.00,,2013-02-07 14:22:00,
2013-02-07 09:32:00,40.0,32.0,30.10,SE,129,0.0,1.0,72,0.00,,,0.00,,2013-02-07 14:32:00,
2013-02-07 09:42:00,40.0,32.0,30.10,SE,129,0.0,1.0,72,0.00,,,0.00,,2013-02-07 14:42:00,
2013-02-07 10:02:00,43.0,35.0,30.10,SW,228,0.0,1.0,72,0.00,,,0.00,,2013-02-07 15:02:00,
2013-02-07 10:11:00,43.0,35.0,30.10,SW,228,0.0,1.0,72,0.00,,,0.00,,2013-02-07 15:11:00,
2013-02-07 10:22:00,43.0,35.0,30.09,North,0,0.0,0.0,72,0.00,,,0.00,,2013-02-07 15:22:00,
2013-02-07 10:32:00,44.0,35.0,30.08,SW,227,0.0,1.0,71,0.00,,,0.00,,2013-02-07 15:32:00,
2013-02-07 10:42:00,44.0,35.0,30.08,SW,227,0.0,1.0,71,0.00,,,0.00,,2013-02-07 15:42:00,
2013-02-07 10:52:00,45.0,36.0,30.08,East,83,0.0,1.0,71,0.00,,,0.00,,2013-02-07 15:52:00,
2013-02-07 11:01:00,45.0,36.0,30.08,East,82,0.0,1.0,70,0.00,,,0.00,,2013-02-07 16:01:00,
2013-02-07 11:11:00,45.0,36.0,30.08,East,82,0.0,1.0,70,0.00,,,0.00,,2013-02-07 16:11:00,
2013-02-07 11:22:00,45.0,35.0,30.07,East,83,0.0,1.0,69,0.00,,,0.00,,2013-02-07 16:22:00,
2013-02-07 11:32:00,45.0,36.0,30.07,East,82,0.0,1.0,70,0.00,,,0.00,,2013-02-07 16:32:00,
2013-02-07 11:42:00,45.0,36.0,30.07,East,82,0.0,1.0,70,0.00,,,0.00,,2013-02-07 16:42:00,
2013-02-07 11:52:00,45.0,36.0,30.06,NW,320,0.0,2.0,71,0.00,,,0.00,,2013-02-07 16:52:00,
2013-02-07 12:01:00,45.0,38.0,30.06,North,0,0.0,0.0,76,0.00,,,0.00,,2013-02-07 17:01:00,
2013-02-07 12:21:00,44.0,37.0,30.06,North,11,0.0,3.0,76,0.00,,,0.00,,2013-02-07 17:21:00,
2013-02-07 12:32:00,43.0,37.0,30.06,North,10,1.0,4.0,79,0.00,,,0.00,,2013-02-07 17:32:00,
2013-02-07 12:43:00,43.0,37.0,30.06,North,10,1.0,4.0,79,0.00,,,0.00,,2013-02-07 17:43:00,
2013-02-07 12:52:00,43.0,37.0,30.06,North,10,1.0,4.0,79,0.00,,,0.00,,2013-02-07 17:52:00,
2013-02-07 13:02:00,42.0,38.0,30.05,NNE,27,0.0,4.0,85,0.01,,,0.01,,2013-02-07 18:02:00,
2013-02-07 13:12:00,42.0,38.0,30.05,NNE,27,0.0,4.0,85,0.01,,,0.01,,2013-02-07 18:12:00,
2013-02-07 13:23:00,42.0,38.0,30.05,NNE,27,0.0,4.0,85,0.01,,,0.01,,2013-02-07 18:23:00,
2013-02-07 13:32:00,42.0,40.0,30.03,NW,305,1.0,2.0,91,0.02,,,0.02,,2013-02-07 18:32:00,
2013-02-07 13:42:00,42.0,40.0,30.03,NW,305,1.0,2.0,91,0.02,,,0.02,,2013-02-07 18:42:00,
2013-02-07 13:52:00,41.0,38.0,30.02,North,10,2.0,6.0,89,0.03,,,0.03,,2013-02-07 18:52:00,
2013-02-07 14:01:00,40.0,37.0,30.02,North,349,1.0,2.0,89,0.02,,,0.03,,2013-02-07 19:01:00,
2013-02-07 14:11:00,40.0,37.0,30.02,North,349,1.0,2.0,89,0.02,,,0.03,,2013-02-07 19:11:00,
2013-02-07 14:22:00,40.0,37.0,30.02,North,349,1.0,2.0,89,0.02,,,0.03,,2013-02-07 19:22:00,
2013-02-07 14:32:00,40.0,37.0,30.01,North,11,1.0,5.0,88,0.02,,,0.04,,2013-02-07 19:32:00,
2013-02-07 14:42:00,40.0,37.0,30.01,North,11,1.0,5.0,88,0.02,,,0.04,,2013-02-07 19:42:00,
2013-02-07 14:52:00,39.0,36.0,30.00,NNW,348,1.0,5.0,89,0.01,,,0.04,,2013-02-07 19:52:00,
2013-02-07 15:01:00,39.0,37.0,30.00,NNW,334,1.0,6.0,91,0.01,,,0.04,,2013-02-07 20:01:00,
2013-02-07 15:11:00,39.0,37.0,30.00,NNW,334,1.0,6.0,91,0.01,,,0.04,,2013-02-07 20:11:00,
2013-02-07 15:22:00,38.0,36.0,30.00,North,359,2.0,10.0,92,0.02,,,0.06,,2013-02-07 20:22:00,
2013-02-07 15:32:00,38.0,36.0,30.00,WNW,289,1.0,3.0,93,0.04,,,0.08,,2013-02-07 20:32:00,
2013-02-07 15:42:00,38.0,36.0,30.00,WNW,289,1.0,3.0,93,0.04,,,0.08,,2013-02-07 20:42:00,
2013-02-07 15:52:00,38.0,36.0,29.99,NW,321,1.0,3.0,94,0.06,,,0.10,,2013-02-07 20:52:00,
2013-02-07 16:02:00,38.0,36.0,29.98,NNE,12,1.0,7.0,94,0.08,,,0.12,,2013-02-07 21:02:00,
2013-02-07 16:11:00,38.0,36.0,29.98,NNE,12,1.0,7.0,94,0.08,,,0.12,,2013-02-07 21:11:00,
2013-02-07 16:22:00,38.0,36.0,29.98,North,1,2.0,5.0,94,0.08,,,0.13,,2013-02-07 21:22:00,
2013-02-07 16:32:00,38.0,37.0,29.96,NW,315,1.0,5.0,95,0.09,,,0.16,,2013-02-07 21:32:00,
2013-02-07 16:42:00,38.0,37.0,29.96,NW,315,1.0,5.0,95,0.09,,,0.16,,2013-02-07 21:42:00,
2013-02-07 16:52:00,38.0,37.0,29.96,NW,324,1.0,7.0,95,0.09,,,0.19,,2013-02-07 21:52:00,
2013-02-07 17:02:00,38.0,37.0,29.95,NNW,337,1.0,4.0,95,0.07,,,0.19,,2013-02-07 22:02:00,
2013-02-07 17:11:00,38.0,37.0,29.95,NNW,337,1.0,4.0,95,0.07,,,0.19,,2013-02-07 22:11:00,
2013-02-07 17:22:00,38.0,37.0,29.94,WNW,295,2.0,5.0,95,0.06,,,0.20,,2013-02-07 22:22:00,
2013-02-07 17:32:00,38.0,37.0,29.93,North,349,2.0,11.0,95,0.04,,,0.21,,2013-02-07 22:32:00,
2013-02-07 17:42:00,38.0,37.0,29.93,North,349,2.0,11.0,95,0.04,,,0.21,,2013-02-07 22:42:00,
2013-02-07 17:52:00,38.0,37.0,29.93,North,3,3.0,10.0,95,0.03,,,0.21,,2013-02-07 22:52:00,
2013-02-07 18:02:00,38.0,37.0,29.93,NNW,344,2.0,5.0,96,0.02,,,0.21,,2013-02-07 23:02:00,
2013-02-07 18:11:00,38.0,37.0,29.93,NNW,344,2.0,5.0,96,0.02,,,0.21,,2013-02-07 23:11:00,
2013-02-07 18:22:00,38.0,37.0,29.93,NNW,344,2.0,5.0,96,0.02,,,0.21,,2013-02-07 23:22:00,
2013-02-07 18:32:00,38.0,37.0,29.93,NNW,344,2.0,5.0,96,0.02,,,0.21,,2013-02-07 23:32:00,
2013-02-07 18:42:00,38.0,37.0,29.93,NNW,344,2.0,5.0,96,0.02,,,0.21,,2013-02-07 23:42:00,
2013-02-07 18:52:00,38.0,37.0,29.92,NNE,28,2.0,10.0,96,0.01,,,0.22,,2013-02-07 23:52:00,
2013-02-07 19:02:00,39.0,38.0,29.92,NNE,17,1.0,5.0,96,0.01,,,0.22,,2013-02-08 00:02:00,
2013-02-07 19:11:00,39.0,38.0,29.92,NNE,17,1.0,5.0,96,0.01,,,0.22,,2013-02-08 00:11:00,
2013-02-07 19:22:00,39.0,38.0,29.92,NNE,17,1.0,5.0,96,0.01,,,0.22,,2013-02-08 00:22:00,
2013-02-07 19:32:00,39.0,38.0,29.92,NNE,17,1.0,5.0,96,0.01,,,0.22,,2013-02-08 00:32:00,
2013-02-07 19:42:00,39.0,38.0,29.92,NNE,17,1.0,5.0,96,0.01,,,0.22,,2013-02-08 00:42:00,
2013-02-07 19:52:00,38.0,37.0,29.92,NNE,17,2.0,7.0,96,0.02,,,0.24,,2013-02-08 00:52:00,
2013-02-07 20:02:00,38.0,37.0,29.92,North,357,2.0,5.0,96,0.03,,,0.25,,2013-02-08 01:02:00,
2013-02-07 20:11:00,38.0,37.0,29.92,North,357,2.0,5.0,96,0.03,,,0.25,,2013-02-08 01:11:00,
2013-02-07 20:21:00,38.0,37.0,29.91,NNW,342,2.0,7.0,96,0.02,,,0.25,,2013-02-08 01:21:00,
2013-02-07 20:32:00,38.0,37.0,29.91,North,358,3.0,10.0,96,0.02,,,0.25,,2013-02-08 01:32:00,
2013-02-07 20:42:00,38.0,37.0,29.91,North,358,3.0,10.0,96,0.02,,,0.25,,2013-02-08 01:42:00,
2013-02-07 20:51:00,38.0,37.0,29.91,NNE,15,3.0,11.0,96,0.01,,,0.25,,2013-02-08 01:51:00,
2013-02-07 21:01:00,38.0,37.0,29.91,NNE,15,3.0,11.0,96,0.01,,,0.25,,2013-02-08 02:01:00,
2013-02-07 21:11:00,38.0,37.0,29.91,NNE,15,3.0,11.0,96,0.01,,,0.25,,2013-02-08 02:11:00,
2013-02-07 21:22:00,38.0,37.0,29.91,NNE,15,3.0,11.0,96,0.01,,,0.25,,2013-02-08 02:22:00,
2013-02-07 21:52:00,38.0,37.0,29.89,NNE,14,2.0,11.0,96,0.01,,,0.26,,2013-02-08 02:52:00,
2013-02-07 22:02:00,38.0,37.0,29.89,NNE,24,2.0,6.0,96,0.00,,,0.26,,2013-02-08 03:02:00,
2013-02-07 22:12:00,38.0,37.0,29.89,NNE,24,2.0,6.0,96,0.00,,,0.26,,2013-02-08 03:12:00,
2013-02-07 22:22:00,38.0,37.0,29.89,WSW,243,1.0,5.0,96,0.00,,,0.26,,2013-02-08 03:22:00,
2013-02-07 22:32:00,38.0,37.0,29.88,WNW,288,1.0,4.0,96,0.00,,,0.26,,2013-02-08 03:32:00,
2013-02-07 22:42:00,38.0,37.0,29.88,WNW,288,1.0,4.0,96,0.00,,,0.26,,2013-02-08 03:42:00,
2013-02-07 22:52:00,38.0,37.0,29.89,WSW,247,0.0,2.0,96,0.00,,,0.26,,2013-02-08 03:52:00,
2013-02-07 23:02:00,38.0,37.0,29.88,ESE,120,1.0,6.0,97,0.00,,,0.26,,2013-02-08 04:02:00,
2013-02-07 23:11:00,38.0,37.0,29.88,ESE,120,1.0,6.0,97,0.00,,,0.26,,2013-02-08 04:11:00,
2013-02-07 23:21:00,38.0,37.0,29.88,West,278,0.0,3.0,97,0.00,,,0.26,,2013-02-08 04:21:00,
2013-02-07 23:32:00,38.0,37.0,29.88,SW,236,0.0,3.0,97,0.00,,,0.26,,2013-02-08 04:32:00,
2013-02-07 23:42:00,38.0,37.0,29.88,SW,236,0.0,3.0,97,0.00,,,0.26,,2013-02-08 04:42:00,
2013-02-07 23:51:00,38.0,37.0,29.87,SE,141,0.0,1.0,97,0.00,,,0.26,,2013-02-08 04:51:00,